• Join FlightAware (Why Join?)
  • Login
  • US Flag 
06:04AM EDT


 

Airport Tracker/Info


-or-


 

Live Flight TrackerFlight Track Log ✈ SKW5631 ✈ 21-Apr-2013 ✈ KSFO - KBUR

Flight Track Log - Related Links

Times and Time Zones

All times are in EDT time to prevent confusion due to time zone crossing. See the SKW5631 flight status page for this flight to view local times or setup timezone preferences in your user account.

Time Position Orientation Groundspeed Altitude Reporting Facility
EDT Latitude Longitude Course Direction KTS MPH feet Rate Location/Type
09:47PM 37.6833 -122.3667 133° Southeast 178 205 2,000  Level Northern Cal TRACON
09:48PM 37.6803 -122.3711 229° Southwest 206 237 2,300 2,400 Climbing Oakland Center
09:48PM 37.6667 -122.4333 255° West 235 270 4,400 2,280 Climbing Northern Cal TRACON
09:50PM 37.3292 -122.2016 136° Southeast  Level FlightAware Approximate
09:50PM 37.5864 -122.4575 193° South 258 297 7,000  Level Oakland Center
09:51PM 37.2373 -122.0675 135° Southeast  Level FlightAware Approximate
09:51PM 37.4953 -122.4200 162° South 291 335 9,700  Level Oakland Center
09:52PM 37.1386 -121.9403 133° Southeast  Level FlightAware Approximate
09:52PM 37.4219 -122.3661 150° Southeast 305 351 11,900  Level Oakland Center
09:53PM 37.3592 -122.2919 137° Southeast 309 356 13,900 1,860 Climbing Oakland Center
09:54PM 37.2936 -122.2200 139° Southeast 314 361 15,700 1,560 Climbing Oakland Center
09:55PM 37.2225 -122.1444 140° Southeast 331 381 17,200 1,380 Climbing Oakland Center
09:56PM 37.1492 -122.0628 138° Southeast 349 402 18,600 1,380 Climbing Oakland Center
09:57PM 37.0747 -121.9808 139° Southeast 356 410 20,100 1,320 Climbing Oakland Center
09:58PM 36.9983 -121.8961 138° Southeast 364 419 21,400 1,080 Climbing Oakland Center
09:59PM 36.9181 -121.8097 139° Southeast 378 435 22,400 960 Climbing Oakland Center
10:00PM 36.8353 -121.7189 139° Southeast 393 452 23,400 1,020 Climbing Oakland Center
10:01PM 36.7447 -121.6181 138° Southeast 400 460 24,500 900 Climbing Oakland Center
10:03PM 36.5733 -121.4303 139° Southeast 411 473 26,300 840 Climbing Oakland Center
10:04PM 36.4858 -121.3364 139° Southeast 415 478 27,100 780 Climbing Oakland Center
10:05PM 36.3792 -121.2208 139° Southeast 424 488 27,900 720 Climbing Oakland Center
10:06PM 36.2892 -121.1233 139° Southeast 427 491 28,600 600 Climbing Oakland Center
10:07PM 36.1972 -121.0267 140° Southeast 433 498 29,200 540 Climbing Oakland Center
10:08PM 36.1056 -120.9281 139° Southeast 436 502 29,800 540 Climbing Oakland Center
10:09PM 36.0125 -120.8294 139° Southeast 438 504 30,400 720 Climbing Oakland Center
10:10PM 35.9208 -120.7303 139° Southeast 439 505 31,300 720 Climbing Oakland Center
10:11PM 35.8300 -120.6333 139° Southeast 433 498 31,900 600 Climbing Oakland Center
10:12PM 35.7386 -120.5381 140° Southeast 430 495 32,600 540 Climbing Oakland Center
10:13PM 35.6464 -120.4419 140° Southeast 431 496 33,000 60 Climbing Oakland Center
10:14PM 35.5531 -120.3439 139° Southeast 437 503 32,800 -600 Descending Oakland Center
10:15PM 35.4597 -120.2450 139° Southeast 438 504 31,800 -1,260 Descending Oakland Center
10:16PM 35.3708 -120.1519 140° Southeast 402 463 30,300 -1,560 Descending Oakland Center
10:16PM 35.3372 -120.1175 140° Southeast 398 458 29,600 -1,620 Descending Los Angeles Center
10:18PM 35.2547 -120.0322 140° Southeast 387 445 28,000 -1,740 Descending Los Angeles Center
10:19PM 35.1567 -119.9314 140° Southeast 385 443 26,100 -1,740 Descending Los Angeles Center
10:20PM 35.0753 -119.8425 138° Southeast 392 451 24,500 -1,620 Descending Los Angeles Center
10:21PM 35.0033 -119.7433 132° Southeast 392 451 22,900 -1,620 Descending Los Angeles Center
10:22PM 34.9308 -119.6467 132° Southeast 387 445 21,300 -1,560 Descending Los Angeles Center
10:23PM 34.8622 -119.5511 131° Southeast 378 435 19,700 -1,620 Descending Los Angeles Center
10:24PM 34.7925 -119.4594 133° Southeast 371 427 18,000 -1,620 Descending Los Angeles Center
10:25PM 34.7250 -119.3683 132° Southeast 364 419 16,400 -1,740 Descending Los Angeles Center
10:26PM 34.6447 -119.2622 133° Southeast 357 411 14,500 -1,620 Descending Los Angeles Center
10:27PM 34.5761 -119.1750 134° Southeast 347 399 13,100 -1,320 Descending Los Angeles Center
10:28PM 34.5156 -119.0906 131° Southeast 334 384 11,800 -1,200 Descending Los Angeles Center
10:29PM 34.4572 -119.0153 133° Southeast 302 348 10,700 -1,200 Descending Los Angeles Center
10:30PM 34.4008 -118.9397 132° Southeast 298 343 9,400 -1,380 Descending Los Angeles Center
10:31PM 34.3533 -118.8608 126° Southeast 288 331 7,900 -1,500 Descending Los Angeles Center
10:32PM 34.3078 -118.7897 128° Southeast 269 310 6,400 -1,020 Descending Los Angeles Center
10:33PM 34.2683 -118.7231 126° Southeast 250 288 5,900 -1,020 Descending Los Angeles Center
10:34PM 34.2311 -118.6572 124° Southeast 240 276 4,400 -1,680 Descending Los Angeles Center
10:34PM 34.2167 -118.6167 113° Southeast 263 303 3,700 -1,080 Descending Southern California TRACON
10:35PM 34.2000 -118.5333 104° East 237 273 3,000 -720 Descending Southern California TRACON